sensor_id;sensor_type;location;lat;lon;timestamp;pressure;altitude;pressure_sealevel;temperature;humidity
54172;BME280;40076;52.354;4.970;2023-12-20T00:01:57;101559.22;;;8.42;100.00
54172;BME280;40076;52.354;4.970;2023-12-20T00:04:28;101556.00;;;8.40;100.00
54172;BME280;40076;52.354;4.970;2023-12-20T00:06:58;101555.50;;;8.38;100.00
54172;BME280;40076;52.354;4.970;2023-12-20T00:09:40;101551.41;;;8.41;100.00
54172;BME280;40076;52.354;4.970;2023-12-20T00:12:05;101540.91;;;8.39;100.00
54172;BME280;40076;52.354;4.970;2023-12-20T00:14:41;101551.19;;;8.37;100.00
54172;BME280;40076;52.354;4.970;2023-12-20T00:17:28;101556.88;;;8.36;100.00
54172;BME280;40076;52.354;4.970;2023-12-20T00:19:59;101556.88;;;8.36;100.00
54172;BME280;40076;52.354;4.970;2023-12-20T00:22:28;101552.84;;;8.33;100.00
54172;BME280;40076;52.354;4.970;2023-12-20T00:24:59;101557.13;;;8.34;100.00
54172;BME280;40076;52.354;4.970;2023-12-20T00:27:47;101563.31;;;8.35;100.00
54172;BME280;40076;52.354;4.970;2023-12-20T00:30:30;101554.44;;;8.34;100.00
54172;BME280;40076;52.354;4.970;2023-12-20T00:33:01;101562.25;;;8.36;100.00
54172;BME280;40076;52.354;4.970;2023-12-20T00:35:34;101560.88;;;8.38;100.00
54172;BME280;40076;52.354;4.970;2023-12-20T00:38:01;101552.81;;;8.38;100.00
54172;BME280;40076;52.354;4.970;2023-12-20T00:40:27;101546.63;;;8.38;100.00
54172;BME280;40076;52.354;4.970;2023-12-20T00:42:53;101549.81;;;8.40;100.00
54172;BME280;40076;52.354;4.970;2023-12-20T00:45:21;101551.19;;;8.37;100.00
54172;BME280;40076;52.354;4.970;2023-12-20T00:47:46;101561.97;;;8.37;100.00
54172;BME280;40076;52.354;4.970;2023-12-20T00:50:14;101546.63;;;8.38;100.00
54172;BME280;40076;52.354;4.970;2023-12-20T00:55:29;101558.47;;;8.37;100.00
54172;BME280;40076;52.354;4.970;2023-12-20T00:57:57;101557.38;;;8.38;100.00
54172;BME280;40076;52.354;4.970;2023-12-20T01:00:27;101546.03;;;8.41;100.00
54172;BME280;40076;52.354;4.970;2023-12-20T01:02:52;101562.19;;;8.41;100.00
54172;BME280;40076;52.354;4.970;2023-12-20T01:05:21;101549.53;;;8.41;100.00
54172;BME280;40076;52.354;4.970;2023-12-20T01:07:51;101548.44;;;8.42;100.00
54172;BME280;40076;52.354;4.970;2023-12-20T01:10:25;101548.44;;;8.42;100.00
54172;BME280;40076;52.354;4.970;2023-12-20T01:12:53;101549.25;;;8.43;100.00
54172;BME280;40076;52.354;4.970;2023-12-20T01:15:19;101545.75;;;8.42;100.00
54172;BME280;40076;52.354;4.970;2023-12-20T01:17:55;101548.44;;;8.42;100.00
54172;BME280;40076;52.354;4.970;2023-12-20T01:20:23;101551.13;;;8.42;100.00
54172;BME280;40076;52.354;4.970;2023-12-20T01:22:49;101554.91;;;8.41;100.00
54172;BME280;40076;52.354;4.970;2023-12-20T01:25:14;101548.44;;;8.42;100.00
54172;BME280;40076;52.354;4.970;2023-12-20T01:27:40;101547.91;;;8.40;100.00
54172;BME280;40076;52.354;4.970;2023-12-20T01:30:08;101542.53;;;8.40;100.00
54172;BME280;40076;52.354;4.970;2023-12-20T01:32:36;101541.72;;;8.40;100.00
54172;BME280;40076;52.354;4.970;2023-12-20T01:35:05;101536.84;;;8.42;100.00
54172;BME280;40076;52.354;4.970;2023-12-20T01:37:33;101538.47;;;8.43;100.00
54172;BME280;40076;52.354;4.970;2023-12-20T01:40:02;101534.97;;;8.42;100.00
54172;BME280;40076;52.354;4.970;2023-12-20T01:42:27;101536.59;;;8.43;100.00
54172;BME280;40076;52.354;4.970;2023-12-20T01:44:53;101529.59;;;8.42;100.00
54172;BME280;40076;52.354;4.970;2023-12-20T01:47:18;101529.59;;;8.42;100.00
54172;BME280;40076;52.354;4.970;2023-12-20T01:49:49;101536.59;;;8.43;100.00
54172;BME280;40076;52.354;4.970;2023-12-20T01:52:16;101536.06;;;8.41;100.00
54172;BME280;40076;52.354;4.970;2023-12-20T01:54:44;101534.69;;;8.44;100.00
54172;BME280;40076;52.354;4.970;2023-12-20T01:57:12;101532.81;;;8.44;100.00
54172;BME280;40076;52.354;4.970;2023-12-20T01:59:41;101533.59;;;8.45;100.00
54172;BME280;40076;52.354;4.970;2023-12-20T02:02:12;101529.81;;;8.46;100.00
54172;BME280;40076;52.354;4.970;2023-12-20T02:04:48;101529.59;;;8.42;100.00
54172;BME280;40076;52.354;4.970;2023-12-20T02:07:17;101544.38;;;8.45;100.00
54172;BME280;40076;52.354;4.970;2023-12-20T02:09:46;101540.88;;;8.44;100.00
54172;BME280;40076;52.354;4.970;2023-12-20T02:12:12;101529.81;;;8.46;100.00
54172;BME280;40076;52.354;4.970;2023-12-20T02:14:43;101535.72;;;8.48;100.00
54172;BME280;40076;52.354;4.970;2023-12-20T02:17:12;101520.13;;;8.45;100.00
54172;BME280;40076;52.354;4.970;2023-12-20T02:19:40;101531.41;;;8.47;100.00
54172;BME280;40076;52.354;4.970;2023-12-20T02:22:09;101523.31;;;8.47;100.00
54172;BME280;40076;52.354;4.970;2023-12-20T02:24:46;101525.72;;;8.48;100.00
54172;BME280;40076;52.354;4.970;2023-12-20T02:27:17;101526.53;;;8.49;100.00
54172;BME280;40076;52.354;4.970;2023-12-20T02:29:54;101527.63;;;8.48;100.00
54172;BME280;40076;52.354;4.970;2023-12-20T02:32:20;101525.44;;;8.50;100.00
54172;BME280;40076;52.354;4.970;2023-12-20T02:34:54;101525.44;;;8.50;100.00
54172;BME280;40076;52.354;4.970;2023-12-20T02:37:20;101528.94;;;8.50;100.00
54172;BME280;40076;52.354;4.970;2023-12-20T02:39:51;101517.94;;;8.47;100.00
54172;BME280;40076;52.354;4.970;2023-12-20T02:42:17;101506.06;;;8.48;100.00
54172;BME280;40076;52.354;4.970;2023-12-20T02:44:42;101512.28;;;8.48;100.00
54172;BME280;40076;52.354;4.970;2023-12-20T02:47:08;101509.28;;;8.50;100.00
54172;BME280;40076;52.354;4.970;2023-12-20T02:49:35;101504.72;;;8.50;100.00
54172;BME280;40076;52.354;4.970;2023-12-20T02:52:04;101510.38;;;8.49;100.00
54172;BME280;40076;52.354;4.970;2023-12-20T02:54:30;101496.63;;;8.50;100.00
54172;BME280;40076;52.354;4.970;2023-12-20T02:56:55;101492.84;;;8.51;100.00
54172;BME280;40076;52.354;4.970;2023-12-20T02:59:21;101492.56;;;8.53;100.00
54172;BME280;40076;52.354;4.970;2023-12-20T03:01:52;101478.28;;;8.52;100.00
54172;BME280;40076;52.354;4.970;2023-12-20T03:04:42;101494.22;;;8.49;100.00
54172;BME280;40076;52.354;4.970;2023-12-20T03:07:19;101485.56;;;8.52;100.00
54172;BME280;40076;52.354;4.970;2023-12-20T03:09:47;101485.06;;;8.50;100.00
54172;BME280;40076;52.354;4.970;2023-12-20T03:12:13;101475.59;;;8.52;100.00
54172;BME280;40076;52.354;4.970;2023-12-20T03:14:48;101482.59;;;8.54;100.00
54172;BME280;40076;52.354;4.970;2023-12-20T03:17:14;101476.97;;;8.50;100.00
54172;BME280;40076;52.354;4.970;2023-12-20T03:19:42;101478.06;;;8.49;100.00
54172;BME280;40076;52.354;4.970;2023-12-20T03:22:10;101481.00;;;8.52;100.00
54172;BME280;40076;52.354;4.970;2023-12-20T03:24:38;101476.16;;;8.49;100.00
54172;BME280;40076;52.354;4.970;2023-12-20T03:27:04;101490.72;;;8.48;100.00
54172;BME280;40076;52.354;4.970;2023-12-20T03:29:32;101489.13;;;8.47;100.00
54172;BME280;40076;52.354;4.970;2023-12-20T03:31:57;101485.63;;;8.47;100.00
54172;BME280;40076;52.354;4.970;2023-12-20T03:34:25;101491.00;;;8.47;100.00
54172;BME280;40076;52.354;4.970;2023-12-20T03:36:57;101501.00;;;8.46;100.00
54172;BME280;40076;52.354;4.970;2023-12-20T03:39:25;101497.50;;;8.46;100.00
54172;BME280;40076;52.354;4.970;2023-12-20T03:41:55;101489.72;;;8.44;100.00
54172;BME280;40076;52.354;4.970;2023-12-20T03:44:23;101490.78;;;8.43;100.00
54172;BME280;40076;52.354;4.970;2023-12-20T03:46:49;101493.22;;;8.45;100.00
54172;BME280;40076;52.354;4.970;2023-12-20T03:49:14;101490.78;;;8.43;100.00
54172;BME280;40076;52.354;4.970;2023-12-20T03:51:40;101491.88;;;8.42;100.00
54172;BME280;40076;52.354;4.970;2023-12-20T03:54:07;101496.69;;;8.45;100.00
54172;BME280;40076;52.354;4.970;2023-12-20T03:56:35;101487.00;;;8.44;100.00
54172;BME280;40076;52.354;4.970;2023-12-20T03:59:00;101487.31;;;8.43;100.00
54172;BME280;40076;52.354;4.970;2023-12-20T04:01:26;101471.66;;;8.45;100.00
54172;BME280;40076;52.354;4.970;2023-12-20T04:03:53;101489.72;;;8.44;100.00
54172;BME280;40076;52.354;4.970;2023-12-20T04:06:21;101488.91;;;8.44;100.00
54172;BME280;40076;52.354;4.970;2023-12-20T04:08:47;101475.97;;;8.46;100.00
54172;BME280;40076;52.354;4.970;2023-12-20T04:11:12;101472.16;;;8.47;100.00
54172;BME280;40076;52.354;4.970;2023-12-20T04:13:38;101466.28;;;8.45;100.00
54172;BME280;40076;52.354;4.970;2023-12-20T04:16:05;101460.59;;;8.46;100.00
54172;BME280;40076;52.354;4.970;2023-12-20T04:18:31;101461.09;;;8.48;100.00
54172;BME280;40076;52.354;4.970;2023-12-20T04:20:59;101459.50;;;8.47;100.00
54172;BME280;40076;52.354;4.970;2023-12-20T04:23:24;101466.47;;;8.48;100.00
54172;BME280;40076;52.354;4.970;2023-12-20T04:25:57;101469.97;;;8.49;100.00
54172;BME280;40076;52.354;4.970;2023-12-20T04:28:25;101465.19;;;8.46;100.00
54172;BME280;40076;52.354;4.970;2023-12-20T04:30:51;101464.59;;;8.49;100.00
54172;BME280;40076;52.354;4.970;2023-12-20T04:33:16;101451.13;;;8.49;100.00
54172;BME280;40076;52.354;4.970;2023-12-20T04:35:44;101462.19;;;8.47;100.00
54172;BME280;40076;52.354;4.970;2023-12-20T04:38:11;101454.63;;;8.49;100.00
54172;BME280;40076;52.354;4.970;2023-12-20T04:40:36;101448.94;;;8.51;100.00
54172;BME280;40076;52.354;4.970;2023-12-20T04:43:04;101443.56;;;8.51;100.00
54172;BME280;40076;52.354;4.970;2023-12-20T04:45:29;101435.47;;;8.51;100.00
54172;BME280;40076;52.354;4.970;2023-12-20T04:47:55;101441.38;;;8.53;100.00
54172;BME280;40076;52.354;4.970;2023-12-20T04:50:20;101449.47;;;8.53;100.00
54172;BME280;40076;52.354;4.970;2023-12-20T04:52:46;101429.00;;;8.52;100.00
54172;BME280;40076;52.354;4.970;2023-12-20T04:55:12;101428.72;;;8.54;100.00
54172;BME280;40076;52.354;4.970;2023-12-20T04:57:40;101439.50;;;8.54;100.00
54172;BME280;40076;52.354;4.970;2023-12-20T05:00:08;101446.19;;;8.56;100.00
54172;BME280;40076;52.354;4.970;2023-12-20T05:02:49;101441.88;;;8.55;100.00
54172;BME280;40076;52.354;4.970;2023-12-20T05:05:21;101445.38;;;8.56;100.00
54172;BME280;40076;52.354;4.970;2023-12-20T05:07:47;101455.34;;;8.55;100.00
54172;BME280;40076;52.354;4.970;2023-12-20T05:10:15;101459.38;;;8.58;100.00
54172;BME280;40076;52.354;4.970;2023-12-20T05:12:40;101458.84;;;8.56;100.00
54172;BME280;40076;52.354;4.970;2023-12-20T05:15:06;101456.66;;;8.58;100.00
54172;BME280;40076;52.354;4.970;2023-12-20T05:17:32;101456.66;;;8.58;100.00
54172;BME280;40076;52.354;4.970;2023-12-20T05:19:57;101454.50;;;8.60;100.00
54172;BME280;40076;52.354;4.970;2023-12-20T05:22:22;101458.28;;;8.59;100.00
54172;BME280;40076;52.354;4.970;2023-12-20T05:24:48;101444.53;;;8.60;100.00
54172;BME280;40076;52.354;4.970;2023-12-20T05:27:14;101442.63;;;8.61;100.00
54172;BME280;40076;52.354;4.970;2023-12-20T05:29:39;101452.31;;;8.62;100.00
54172;BME280;40076;52.354;4.970;2023-12-20T05:32:05;101440.44;;;8.63;100.00
54172;BME280;40076;52.354;4.970;2023-12-20T05:34:31;101434.56;;;8.61;100.00
54172;BME280;40076;52.354;4.970;2023-12-20T05:36:58;101432.94;;;8.60;100.00
54172;BME280;40076;52.354;4.970;2023-12-20T05:39:23;101431.88;;;8.61;100.00
54172;BME280;40076;52.354;4.970;2023-12-20T05:41:52;101428.38;;;8.60;100.00
54172;BME280;40076;52.354;4.970;2023-12-20T05:44:20;101436.94;;;8.62;100.00
54172;BME280;40076;52.354;4.970;2023-12-20T05:46:45;101436.66;;;8.64;100.00
54172;BME280;40076;52.354;4.970;2023-12-20T05:49:10;101437.44;;;8.64;100.00
54172;BME280;40076;52.354;4.970;2023-12-20T05:51:36;101440.16;;;8.64;100.00
54172;BME280;40076;52.354;4.970;2023-12-20T05:54:01;101442.56;;;8.66;100.00
54172;BME280;40076;52.354;4.970;2023-12-20T05:56:27;101446.84;;;8.67;100.00
54172;BME280;40076;52.354;4.970;2023-12-20T05:58:52;101436.88;;;8.67;100.00
54172;BME280;40076;52.354;4.970;2023-12-20T06:01:18;101440.38;;;8.68;100.00
54172;BME280;40076;52.354;4.970;2023-12-20T06:03:44;101441.66;;;8.70;100.00
54172;BME280;40076;52.354;4.970;2023-12-20T06:06:11;101444.38;;;8.70;100.00
54172;BME280;40076;52.354;4.970;2023-12-20T06:08:38;101426.63;;;8.69;100.00
54172;BME280;40076;52.354;4.970;2023-12-20T06:11:06;101426.31;;;8.71;100.00
54172;BME280;40076;52.354;4.970;2023-12-20T06:13:32;101420.13;;;8.70;100.00
54172;BME280;40076;52.354;4.970;2023-12-20T06:15:57;101431.41;;;8.72;100.00
54172;BME280;40076;52.354;4.970;2023-12-20T06:18:25;101412.84;;;8.71;100.00
54172;BME280;40076;52.354;4.970;2023-12-20T06:20:50;101421.44;;;8.73;100.00
54172;BME280;40076;52.354;4.970;2023-12-20T06:23:16;101433.53;;;8.75;100.00
54172;BME280;40076;52.354;4.970;2023-12-20T06:25:44;101425.16;;;8.77;100.00
54172;BME280;40076;52.354;4.970;2023-12-20T06:28:09;101430.25;;;8.78;100.00
54172;BME280;40076;52.354;4.970;2023-12-20T06:30:35;101428.34;;;8.79;100.00
54172;BME280;40076;52.354;4.970;2023-12-20T06:33:01;101426.47;;;8.79;100.00
54172;BME280;40076;52.354;4.970;2023-12-20T06:35:26;101422.69;;;8.80;100.00
54172;BME280;40076;52.354;4.970;2023-12-20T06:37:52;101423.47;;;8.81;100.00
54172;BME280;40076;52.354;4.970;2023-12-20T06:40:17;101425.66;;;8.79;100.00
54172;BME280;40076;52.354;4.970;2023-12-20T06:42:44;101431.84;;;8.79;100.00
54172;BME280;40076;52.354;4.970;2023-12-20T06:45:09;101427.25;;;8.80;100.00
54172;BME280;40076;52.354;4.970;2023-12-20T06:47:35;101431.84;;;8.79;100.00
54172;BME280;40076;52.354;4.970;2023-12-20T06:50:00;101435.63;;;8.78;100.00
54172;BME280;40076;52.354;4.970;2023-12-20T06:52:28;101418.97;;;8.76;100.00
54172;BME280;40076;52.354;4.970;2023-12-20T06:55:03;101429.94;;;8.80;100.00
54172;BME280;40076;52.354;4.970;2023-12-20T06:57:38;101419.19;;;8.80;100.00
54172;BME280;40076;52.354;4.970;2023-12-20T07:00:04;101425.09;;;8.82;100.00
54172;BME280;40076;52.354;4.970;2023-12-20T07:02:29;101406.50;;;8.80;100.00
54172;BME280;40076;52.354;4.970;2023-12-20T07:04:55;101408.13;;;8.81;100.00
54172;BME280;40076;52.354;4.970;2023-12-20T07:07:21;101412.13;;;8.84;100.00
54172;BME280;40076;52.354;4.970;2023-12-20T07:09:50;101421.31;;;8.83;100.00
54172;BME280;40076;52.354;4.970;2023-12-20T07:12:16;101407.53;;;8.84;100.00
54172;BME280;40076;52.354;4.970;2023-12-20T07:14:46;101391.38;;;8.84;100.00
54172;BME280;40076;52.354;4.970;2023-12-20T07:17:14;101397.84;;;8.83;100.00
54172;BME280;40076;52.354;4.970;2023-12-20T07:19:41;101396.75;;;8.84;100.00
54172;BME280;40076;52.354;4.970;2023-12-20T07:22:09;101400.75;;;8.87;100.00
54172;BME280;40076;52.354;4.970;2023-12-20T07:24:35;101397.25;;;8.86;100.00
54172;BME280;40076;52.354;4.970;2023-12-20T07:27:00;101384.56;;;8.87;100.00
54172;BME280;40076;52.354;4.970;2023-12-20T07:29:28;101382.69;;;8.87;100.00
54172;BME280;40076;52.354;4.970;2023-12-20T07:31:57;101387.25;;;8.87;100.00
54172;BME280;40076;52.354;4.970;2023-12-20T07:34:27;101388.06;;;8.87;100.00
54172;BME280;40076;52.354;4.970;2023-12-20T07:36:55;101394.25;;;8.88;100.00
54172;BME280;40076;52.354;4.970;2023-12-20T07:39:23;101403.44;;;8.87;100.00
54172;BME280;40076;52.354;4.970;2023-12-20T07:41:49;101417.72;;;8.87;100.00
54172;BME280;40076;52.354;4.970;2023-12-20T07:44:14;101415.53;;;8.89;100.00
54172;BME280;40076;52.354;4.970;2023-12-20T07:46:40;101426.03;;;8.91;100.00
54172;BME280;40076;52.354;4.970;2023-12-20T07:49:08;101431.09;;;8.93;100.00
54172;BME280;40076;52.354;4.970;2023-12-20T07:51:35;101429.22;;;8.93;100.00
54172;BME280;40076;52.354;4.970;2023-12-20T07:54:00;101428.13;;;8.94;100.00
54172;BME280;40076;52.354;4.970;2023-12-20T07:56:25;101435.91;;;8.96;100.00
54172;BME280;40076;52.354;4.970;2023-12-20T07:58:51;101451.28;;;8.95;100.00
54172;BME280;40076;52.354;4.970;2023-12-20T08:01:16;101441.81;;;8.98;100.00
54172;BME280;40076;52.354;4.970;2023-12-20T08:03:43;101434.53;;;8.98;100.00
54172;BME280;40076;52.354;4.970;2023-12-20T08:06:08;101435.84;;;9.01;100.00
54172;BME280;40076;52.354;4.970;2023-12-20T08:08:33;101431.75;;;9.03;100.00
54172;BME280;40076;52.354;4.970;2023-12-20T08:10:59;101427.97;;;9.04;100.00
54172;BME280;40076;52.354;4.970;2023-12-20T08:13:25;101425.56;;;9.03;100.00
54172;BME280;40076;52.354;4.970;2023-12-20T08:15:51;101428.78;;;9.05;100.00
54172;BME280;40076;52.354;4.970;2023-12-20T08:18:17;101422.00;;;9.07;100.00
54172;BME280;40076;52.354;4.970;2023-12-20T08:20:42;101437.56;;;9.10;100.00
54172;BME280;40076;52.354;4.970;2023-12-20T08:23:07;101417.91;;;9.10;100.00
54172;BME280;40076;52.354;4.970;2023-12-20T08:25:32;101409.81;;;9.10;100.00
54172;BME280;40076;52.354;4.970;2023-12-20T08:27:58;101407.13;;;9.10;100.00
54172;BME280;40076;52.354;4.970;2023-12-20T08:30:23;101413.81;;;9.12;100.00
54172;BME280;40076;52.354;4.970;2023-12-20T08:32:48;101410.03;;;9.13;100.00
54172;BME280;40076;52.354;4.970;2023-12-20T08:35:14;101417.84;;;9.15;100.00
54172;BME280;40076;52.354;4.970;2023-12-20T08:37:39;101427.81;;;9.14;100.00
54172;BME280;40076;52.354;4.970;2023-12-20T08:40:05;101424.03;;;9.15;100.00
54172;BME280;40076;52.354;4.970;2023-12-20T08:42:30;101440.22;;;9.15;100.00
54172;BME280;40076;52.354;4.970;2023-12-20T08:44:57;101429.63;;;9.19;100.00
54172;BME280;40076;52.354;4.970;2023-12-20T08:47:23;101421.25;;;9.20;100.00
54172;BME280;40076;52.354;4.970;2023-12-20T08:49:48;101439.50;;;9.23;100.00
54172;BME280;40076;52.354;4.970;2023-12-20T08:52:14;101431.75;;;9.22;100.00
54172;BME280;40076;52.354;4.970;2023-12-20T08:54:39;101431.75;;;9.22;100.00
54172;BME280;40076;52.354;4.970;2023-12-20T08:57:04;101426.03;;;9.23;100.00
54172;BME280;40076;52.354;4.970;2023-12-20T08:59:32;101419.53;;;9.24;100.00
54172;BME280;40076;52.354;4.970;2023-12-20T09:01:57;101427.63;;;9.24;100.00
54172;BME280;40076;52.354;4.970;2023-12-20T09:04:22;101424.66;;;9.26;100.00
54172;BME280;40076;52.354;4.970;2023-12-20T09:06:47;101414.66;;;9.26;100.00
54172;BME280;40076;52.354;4.970;2023-12-20T09:09:13;101410.38;;;9.25;100.00
54172;BME280;40076;52.354;4.970;2023-12-20T09:11:41;101404.69;;;9.27;100.00
54172;BME280;40076;52.354;4.970;2023-12-20T09:14:07;101411.16;;;9.26;100.00
54172;BME280;40076;52.354;4.970;2023-12-20T09:16:32;101410.06;;;9.27;100.00
54172;BME280;40076;52.354;4.970;2023-12-20T09:18:58;101406.56;;;9.26;100.00
54172;BME280;40076;52.354;4.970;2023-12-20T09:21:23;101430.84;;;9.26;100.00
54172;BME280;40076;52.354;4.970;2023-12-20T09:23:49;101417.06;;;9.28;100.00
54172;BME280;40076;52.354;4.970;2023-12-20T09:26:14;101417.06;;;9.28;100.00
54172;BME280;40076;52.354;4.970;2023-12-20T09:28:41;101408.69;;;9.29;100.00
54172;BME280;40076;52.354;4.970;2023-12-20T09:31:06;101416.78;;;9.29;100.00
54172;BME280;40076;52.354;4.970;2023-12-20T09:33:32;101411.88;;;9.32;100.00
54172;BME280;40076;52.354;4.970;2023-12-20T09:35:58;101414.09;;;9.29;100.00
54172;BME280;40076;52.354;4.970;2023-12-20T09:38:23;101419.16;;;9.31;100.00
54172;BME280;40076;52.354;4.970;2023-12-20T09:40:49;101424.88;;;9.29;100.00
54172;BME280;40076;52.354;4.970;2023-12-20T09:43:19;101413.00;;;9.31;100.00
54172;BME280;40076;52.354;4.970;2023-12-20T09:45:46;101447.25;;;9.30;100.00
54172;BME280;40076;52.354;4.970;2023-12-20T09:48:12;101424.78;;;9.35;100.00
54172;BME280;40076;52.354;4.970;2023-12-20T09:50:40;101431.78;;;9.36;100.00
54172;BME280;40076;52.354;4.970;2023-12-20T09:53:07;101432.56;;;9.36;100.00
54172;BME280;40076;52.354;4.970;2023-12-20T09:55:35;101437.97;;;9.36;100.00
54172;BME280;40076;52.354;4.970;2023-12-20T09:58:01;101430.69;;;9.37;100.00
54172;BME280;40076;52.354;4.970;2023-12-20T10:00:26;101442.75;;;9.39;100.00
54172;BME280;40076;52.354;4.970;2023-12-20T10:02:59;101445.84;;;9.33;100.00
54172;BME280;40076;52.354;4.970;2023-12-20T10:05:32;101451.47;;;9.36;100.00
54172;BME280;40076;52.354;4.970;2023-12-20T10:07:59;101443.56;;;9.40;100.00
54172;BME280;40076;52.354;4.970;2023-12-20T10:10:26;101444.06;;;9.42;100.00
54172;BME280;40076;52.354;4.970;2023-12-20T10:13:21;101439.78;;;9.41;100.00
54172;BME280;40076;52.354;4.970;2023-12-20T10:15:46;101433.28;;;9.42;100.00
54172;BME280;40076;52.354;4.970;2023-12-20T10:18:12;101441.38;;;9.42;100.00
54172;BME280;40076;52.354;4.970;2023-12-20T10:20:40;101436.78;;;9.42;100.00
54172;BME280;40076;52.354;4.970;2023-12-20T10:23:05;101433.50;;;9.45;100.00
54172;BME280;40076;52.354;4.970;2023-12-20T10:25:31;101435.88;;;9.47;100.00
54172;BME280;40076;52.354;4.970;2023-12-20T10:28:16;101438.28;;;9.48;100.00
54172;BME280;40076;52.354;4.970;2023-12-20T10:30:48;101429.91;;;9.50;100.00
54172;BME280;40076;52.354;4.970;2023-12-20T10:33:24;101438.81;;;9.50;100.00
54172;BME280;40076;52.354;4.970;2023-12-20T10:35:50;101426.63;;;9.53;100.00
54172;BME280;40076;52.354;4.970;2023-12-20T10:38:15;101418.22;;;9.54;100.00
54172;BME280;40076;52.354;4.970;2023-12-20T10:40:41;101421.94;;;9.58;100.00
54172;BME280;40076;52.354;4.970;2023-12-20T10:43:07;101426.00;;;9.56;100.00
54172;BME280;40076;52.354;4.970;2023-12-20T10:45:36;101414.94;;;9.57;100.00
54172;BME280;40076;52.354;4.970;2023-12-20T10:48:02;101415.94;;;9.61;100.00
54172;BME280;40076;52.354;4.970;2023-12-20T10:50:28;101403.75;;;9.64;100.00
54172;BME280;40076;52.354;4.970;2023-12-20T10:52:55;101401.06;;;9.64;100.00
54172;BME280;40076;52.354;4.970;2023-12-20T10:55:22;101402.34;;;9.66;100.00
54172;BME280;40076;52.354;4.970;2023-12-20T10:57:49;101395.53;;;9.69;100.00
54172;BME280;40076;52.354;4.970;2023-12-20T11:00:19;101402.25;;;9.72;100.00
54172;BME280;40076;52.354;4.970;2023-12-20T11:02:49;101418.97;;;9.74;100.00
54172;BME280;40076;52.354;4.970;2023-12-20T11:05:33;101395.47;;;9.74;100.00
54172;BME280;40076;52.354;4.970;2023-12-20T11:08:09;101399.44;;;9.77;100.00
54172;BME280;40076;52.354;4.970;2023-12-20T11:13:16;101389.16;;;9.79;100.00
54172;BME280;40076;52.354;4.970;2023-12-20T11:15:45;101406.16;;;9.79;100.00
54172;BME280;40076;52.354;4.970;2023-12-20T11:18:10;101389.44;;;9.77;100.00
54172;BME280;40076;52.354;4.970;2023-12-20T11:20:37;101405.34;;;9.79;100.00
54172;BME280;40076;52.354;4.970;2023-12-20T11:23:03;101403.16;;;9.81;100.00
54172;BME280;40076;52.354;4.970;2023-12-20T11:25:29;101390.19;;;9.83;100.00
54172;BME280;40076;52.354;4.970;2023-12-20T11:30:48;101387.78;;;9.81;100.00
54172;BME280;40076;52.354;4.970;2023-12-20T11:33:15;101372.38;;;9.82;100.00
54172;BME280;40076;52.354;4.970;2023-12-20T11:35:41;101378.88;;;9.81;100.00
54172;BME280;40076;52.354;4.970;2023-12-20T11:38:10;101377.78;;;9.82;100.00
54172;BME280;40076;52.354;4.970;2023-12-20T11:40:38;101370.19;;;9.84;100.00
54172;BME280;40076;52.354;4.970;2023-12-20T11:43:04;101354.75;;;9.84;100.00
54172;BME280;40076;52.354;4.970;2023-12-20T11:45:30;101359.06;;;9.85;100.00
54172;BME280;40076;52.354;4.970;2023-12-20T11:47:57;101364.47;;;9.85;100.00
54172;BME280;40076;52.354;4.970;2023-12-20T11:50:23;101361.28;;;9.83;100.00
54172;BME280;40076;52.354;4.970;2023-12-20T11:52:50;101360.16;;;9.84;100.00
54172;BME280;40076;52.354;4.970;2023-12-20T11:55:16;101357.78;;;9.83;100.00
54172;BME280;40076;52.354;4.970;2023-12-20T11:57:43;101355.56;;;9.85;100.00
54172;BME280;40076;52.354;4.970;2023-12-20T12:00:10;101368.25;;;9.84;100.00
54172;BME280;40076;52.354;4.970;2023-12-20T12:02:35;101372.09;;;9.83;100.00
54172;BME280;40076;52.354;4.970;2023-12-20T12:05:01;101372.09;;;9.83;100.00
54172;BME280;40076;52.354;4.970;2023-12-20T12:07:30;101370.47;;;9.82;100.00
54172;BME280;40076;52.354;4.970;2023-12-20T12:09:55;101370.19;;;9.84;100.00
54172;BME280;40076;52.354;4.970;2023-12-20T12:12:21;101360.16;;;9.84;100.00
54172;BME280;40076;52.354;4.970;2023-12-20T12:14:47;101350.16;;;9.85;100.00
54172;BME280;40076;52.354;4.970;2023-12-20T12:17:13;101350.16;;;9.85;100.00
54172;BME280;40076;52.354;4.970;2023-12-20T12:19:40;101327.78;;;9.84;100.00
54172;BME280;40076;52.354;4.970;2023-12-20T12:22:10;101342.06;;;9.85;100.00
54172;BME280;40076;52.354;4.970;2023-12-20T12:24:42;101333.19;;;9.84;100.00
54172;BME280;40076;52.354;4.970;2023-12-20T12:27:08;101325.59;;;9.86;100.00
54172;BME280;40076;52.354;4.970;2023-12-20T12:29:34;101317.47;;;9.86;100.00
54172;BME280;40076;52.354;4.970;2023-12-20T12:32:00;101319.59;;;9.89;100.00
54172;BME280;40076;52.354;4.970;2023-12-20T12:34:29;101324.19;;;9.89;100.00
54172;BME280;40076;52.354;4.970;2023-12-20T12:36:56;101311.19;;;9.91;100.00
54172;BME280;40076;52.354;4.970;2023-12-20T12:39:24;101314.50;;;9.88;100.00
54172;BME280;40076;52.354;4.970;2023-12-20T12:41:55;101311.78;;;9.88;100.00
54172;BME280;40076;52.354;4.970;2023-12-20T12:44:23;101321.19;;;9.90;100.00
54172;BME280;40076;52.354;4.970;2023-12-20T12:46:52;101315.19;;;9.93;100.00
54172;BME280;40076;52.354;4.970;2023-12-20T12:49:19;101313.56;;;9.92;100.00
54172;BME280;40076;52.354;4.970;2023-12-20T12:51:47;101307.88;;;9.94;100.00
54172;BME280;40076;52.354;4.970;2023-12-20T12:54:13;101301.69;;;9.93;100.00
54172;BME280;40076;52.354;4.970;2023-12-20T12:56:40;101303.56;;;9.93;100.00
54172;BME280;40076;52.354;4.970;2023-12-20T12:59:11;101307.38;;;9.92;100.00
54172;BME280;40076;52.354;4.970;2023-12-20T13:01:36;101287.09;;;9.94;100.00